Time;durP1;ratioP1;P1;durP2;ratioP2;P2;SDS_P1;SDS_P2;PMS_P1;PMS_P2;Temp;Humidity;BMP_temperature;BMP_pressure;BME280_temperature;BME280_humidity;BME280_pressure;Samples;Min_cycle;Max_cycle;Signal;HPM_P1;HPM_P2
2024/01/24 00:01:58;;;;;;;3.22;0.90;;;10.10;99.90;;;;;;4996606;28;20634;-68
2024/01/24 00:04:26;;;;;;;2.65;0.88;;;10.30;99.90;;;;;;4997915;28;20113;-68
2024/01/24 00:06:54;;;;;;;3.38;0.82;;;10.30;99.90;;;;;;4994500;28;20038;-68
2024/01/24 00:09:22;;;;;;;1.73;0.90;;;10.40;99.90;;;;;;4994291;28;20038;-68
2024/01/24 00:11:47;;;;;;;3.10;1.00;;;10.50;99.90;;;;;;4995271;28;20030;-68
2024/01/24 00:14:15;;;;;;;1.40;0.90;;;10.50;99.90;;;;;;4997004;28;20057;-68
2024/01/24 00:16:41;;;;;;;;;;;10.70;99.90;;;;;;4999030;28;20081;-68
2024/01/24 00:19:06;;;;;;;1.80;1.02;;;10.70;99.90;;;;;;4998933;28;20349;-68
2024/01/24 00:21:32;;;;;;;2.83;1.45;;;10.80;99.90;;;;;;4995146;28;20030;-68
2024/01/24 00:24:00;;;;;;;2.67;1.30;;;10.90;99.90;;;;;;4987579;28;20084;-68
2024/01/24 00:26:25;;;;;;;;;;;10.90;99.90;;;;;;4996125;28;20037;-68
2024/01/24 00:28:51;;;;;;;4.43;1.10;;;11.00;99.90;;;;;;5007175;28;20411;-68
2024/01/24 00:31:21;;;;;;;2.08;0.90;;;11.00;99.90;;;;;;4998004;28;20036;-68
2024/01/24 00:33:52;;;;;;;1.42;1.08;;;11.10;99.90;;;;;;5005634;28;20116;-69
2024/01/24 00:36:23;;;;;;;1.95;0.85;;;11.10;99.90;;;;;;5004672;28;20185;-68
2024/01/24 00:38:48;;;;;;;4.28;0.90;;;11.20;99.90;;;;;;5003403;28;20038;-68
2024/01/24 00:41:19;;;;;;;1.70;1.00;;;11.20;99.90;;;;;;5005618;28;20079;-69
2024/01/24 00:43:44;;;;;;;2.08;0.98;;;11.30;99.90;;;;;;5006920;28;20396;-69
2024/01/24 00:46:10;;;;;;;2.45;0.98;;;11.30;99.90;;;;;;5012733;23;20050;-68
2024/01/24 00:48:38;;;;;;;1.83;0.70;;;11.30;99.90;;;;;;5005391;28;20034;-68
2024/01/24 00:51:04;;;;;;;1.48;0.73;;;11.40;99.90;;;;;;5006562;28;20034;-68
2024/01/24 00:53:39;;;;;;;3.15;0.70;;;11.40;99.90;;;;;;5000455;28;20034;-68
2024/01/24 00:56:07;;;;;;;0.40;0.40;;;11.40;99.90;;;;;;5007223;28;20346;-68
2024/01/24 00:58:33;;;;;;;1.42;0.60;;;11.40;99.90;;;;;;5018935;28;20030;-68
2024/01/24 01:01:00;;;;;;;2.38;0.52;;;11.40;99.90;;;;;;5010990;28;20594;-68
2024/01/24 01:03:26;;;;;;;1.35;0.60;;;11.40;99.90;;;;;;5014411;28;20022;-68
2024/01/24 01:05:52;;;;;;;2.08;0.47;;;11.50;99.90;;;;;;5014291;28;20410;-69
2024/01/24 01:08:20;;;;;;;0.98;0.50;;;11.50;99.90;;;;;;5014905;28;20030;-68
2024/01/24 01:10:45;;;;;;;0.80;0.43;;;11.50;99.90;;;;;;5020114;28;20021;-68
2024/01/24 01:13:11;;;;;;;1.63;0.60;;;11.50;99.90;;;;;;5018475;28;20490;-68
2024/01/24 01:15:40;;;;;;;0.40;0.40;;;11.60;99.90;;;;;;5016171;28;20088;-68
2024/01/24 01:18:05;;;;;;;0.35;0.35;;;11.60;99.90;;;;;;5008591;28;20034;-69
2024/01/24 01:20:33;;;;;;;0.40;0.40;;;11.60;99.90;;;;;;5036860;28;20510;-69
2024/01/24 01:22:59;;;;;;;1.52;0.40;;;11.60;99.90;;;;;;5013733;28;20109;-68
2024/01/24 01:25:26;;;;;;;1.65;0.68;;;11.60;99.90;;;;;;5011562;28;20162;-69
2024/01/24 01:27:57;;;;;;;4.13;0.50;;;11.70;99.90;;;;;;5018202;28;20033;-68
2024/01/24 01:30:23;;;;;;;3.38;0.77;;;11.70;99.90;;;;;;5018708;28;20162;-69
2024/01/24 01:32:51;;;;;;;1.90;0.60;;;11.80;99.90;;;;;;5009143;28;20068;-69
2024/01/24 01:35:17;;;;;;;5.72;0.80;;;11.80;99.90;;;;;;5010834;28;20121;-69
2024/01/24 01:37:45;;;;;;;1.98;1.00;;;11.80;99.90;;;;;;5016845;28;20037;-68
2024/01/24 01:40:13;;;;;;;1.60;0.98;;;11.90;99.90;;;;;;5015786;28;20492;-68
2024/01/24 01:42:45;;;;;;;;;;;11.90;99.90;;;;;;5012332;28;20670;-68
2024/01/24 01:45:12;;;;;;;3.13;0.88;;;11.90;99.90;;;;;;5013650;28;19947;-69
2024/01/24 01:47:41;;;;;;;1.75;1.00;;;11.90;99.90;;;;;;5016881;28;20649;-68
2024/01/24 01:50:10;;;;;;;3.63;1.13;;;12.00;99.90;;;;;;5016357;28;20125;-69
2024/01/24 01:52:40;;;;;;;3.83;1.23;;;12.00;99.90;;;;;;5017854;28;20469;-68
2024/01/24 01:55:07;;;;;;;1.73;1.10;;;12.00;99.90;;;;;;4999192;28;20430;-68
2024/01/24 01:57:33;;;;;;;1.95;1.38;;;12.00;99.90;;;;;;5013853;28;20026;-68
2024/01/24 02:00:02;;;;;;;2.78;1.40;;;12.10;99.90;;;;;;5011915;28;20339;-68
2024/01/24 02:02:28;;;;;;;1.20;1.02;;;12.10;99.90;;;;;;5018206;28;20039;-69
2024/01/24 02:04:56;;;;;;;4.00;1.38;;;12.20;99.90;;;;;;5018438;28;20121;-69
2024/01/24 02:07:23;;;;;;;8.30;1.90;;;12.20;99.90;;;;;;5020879;28;20041;-69
2024/01/24 02:09:49;;;;;;;3.33;1.45;;;12.10;99.90;;;;;;5000017;28;20108;-68
2024/01/24 02:12:17;;;;;;;5.28;1.40;;;12.10;99.90;;;;;;5023719;28;20073;-69
2024/01/24 02:14:43;;;;;;;4.32;1.52;;;12.20;99.90;;;;;;5022150;28;20133;-68
2024/01/24 02:17:11;;;;;;;1.40;1.20;;;12.20;99.90;;;;;;5006601;28;20121;-69
2024/01/24 02:19:39;;;;;;;2.92;1.20;;;12.20;99.90;;;;;;5009868;28;20109;-69
2024/01/24 02:22:09;;;;;;;3.80;1.30;;;12.10;99.90;;;;;;5014953;28;21173;-68
2024/01/24 02:24:39;;;;;;;2.55;0.90;;;12.20;99.90;;;;;;5008893;28;20029;-68
2024/01/24 02:27:08;;;;;;;2.80;0.98;;;12.20;99.90;;;;;;5017764;28;20042;-69
2024/01/24 02:29:39;;;;;;;2.08;1.10;;;12.20;99.90;;;;;;5007936;28;20180;-69
2024/01/24 02:32:04;;;;;;;4.68;1.15;;;12.20;99.90;;;;;;5008328;28;20682;-68
2024/01/24 02:34:32;;;;;;;2.25;1.00;;;12.30;99.90;;;;;;5022195;28;20033;-69
2024/01/24 02:36:58;;;;;;;;;;;12.30;99.90;;;;;;5020085;28;20045;-69
2024/01/24 02:39:26;;;;;;;2.90;1.40;;;12.30;99.90;;;;;;5017803;28;19960;-69
2024/01/24 02:41:53;;;;;;;;;;;12.30;99.90;;;;;;5020948;28;20033;-69
2024/01/24 02:44:23;;;;;;;3.92;1.20;;;12.30;99.90;;;;;;5025290;28;19963;-68
2024/01/24 02:46:48;;;;;;;3.15;1.48;;;12.30;99.90;;;;;;5021465;28;20044;-68
2024/01/24 02:49:14;;;;;;;4.38;1.33;;;12.30;99.90;;;;;;5017516;28;20022;-68
2024/01/24 02:51:42;;;;;;;2.72;1.13;;;12.30;99.90;;;;;;5011351;28;20038;-68
2024/01/24 02:54:10;;;;;;;;;;;12.30;99.90;;;;;;5013973;28;20546;-69
2024/01/24 02:56:37;;;;;;;;;;;12.30;99.90;;;;;;5014784;28;20055;-69
2024/01/24 02:59:03;;;;;;;4.65;1.45;;;12.40;99.90;;;;;;5018029;28;20375;-69
2024/01/24 03:01:30;;;;;;;2.50;1.00;;;12.40;99.90;;;;;;5015372;28;20229;-69
2024/01/24 03:03:56;;;;;;;1.05;0.82;;;12.40;99.90;;;;;;5008239;28;20251;-69
2024/01/24 03:06:26;;;;;;;0.85;0.82;;;12.40;99.90;;;;;;5006550;28;20391;-69
2024/01/24 03:08:56;;;;;;;0.60;0.60;;;12.40;99.90;;;;;;5007654;28;20034;-69
2024/01/24 03:11:24;;;;;;;2.85;0.80;;;12.40;99.90;;;;;;5010683;28;20093;-68
2024/01/24 03:13:52;;;;;;;1.33;0.80;;;12.40;99.90;;;;;;5002954;28;20042;-68
2024/01/24 03:16:18;;;;;;;0.85;0.80;;;12.40;99.90;;;;;;5008569;28;20029;-68
2024/01/24 03:18:44;;;;;;;1.25;1.00;;;12.50;99.90;;;;;;5008593;28;20400;-68
2024/01/24 03:21:18;;;;;;;1.77;0.88;;;12.40;99.90;;;;;;5007948;28;20038;-69
2024/01/24 03:23:44;;;;;;;1.80;0.85;;;12.50;99.90;;;;;;5003919;28;20026;-69
2024/01/24 03:26:10;;;;;;;2.97;0.90;;;12.50;99.90;;;;;;5003826;28;20030;-68
2024/01/24 03:28:38;;;;;;;3.17;0.80;;;12.50;99.90;;;;;;5004150;28;20034;-68
2024/01/24 03:31:04;;;;;;;3.03;0.73;;;12.50;99.90;;;;;;5011159;28;20821;-68
2024/01/24 03:33:30;;;;;;;1.25;0.80;;;12.60;99.90;;;;;;5007136;28;20056;-68
2024/01/24 03:35:58;;;;;;;1.52;1.42;;;12.60;99.90;;;;;;5003586;28;20034;-68
2024/01/24 03:38:23;;;;;;;;;;;12.60;99.90;;;;;;4999906;28;20542;-69
2024/01/24 03:40:51;;;;;;;2.20;1.15;;;12.60;99.90;;;;;;5006958;28;19944;-68
2024/01/24 03:43:19;;;;;;;0.82;0.63;;;12.60;99.90;;;;;;5008038;28;20121;-69
2024/01/24 03:45:44;;;;;;;2.97;0.82;;;12.60;99.90;;;;;;5009698;28;20029;-68
2024/01/24 03:48:10;;;;;;;3.85;1.05;;;12.70;99.90;;;;;;5014524;28;20410;-68
2024/01/24 03:50:40;;;;;;;3.58;1.20;;;12.70;99.90;;;;;;5001425;28;20053;-68
2024/01/24 03:53:06;;;;;;;1.80;1.00;;;12.80;99.90;;;;;;5008270;28;20026;-68
2024/01/24 03:55:36;;;;;;;1.27;1.13;;;12.80;99.90;;;;;;5000782;28;20503;-68
2024/01/24 03:58:02;;;;;;;3.83;1.30;;;12.80;99.90;;;;;;5009368;28;20030;-68
2024/01/24 04:00:27;;;;;;;3.35;1.50;;;12.80;99.90;;;;;;5005766;28;20519;-68
2024/01/24 04:02:53;;;;;;;1.73;1.63;;;12.90;99.90;;;;;;5008944;28;20041;-71
2024/01/24 04:05:19;;;;;;;2.40;1.77;;;12.90;99.90;;;;;;5010552;28;20087;-69
2024/01/24 04:07:44;;;;;;;3.30;1.75;;;12.90;99.90;;;;;;5013907;28;20052;-68
2024/01/24 04:10:10;;;;;;;4.53;2.42;;;12.90;99.90;;;;;;5013633;28;20034;-69
2024/01/24 04:12:38;;;;;;;4.38;2.42;;;12.90;99.90;;;;;;5020530;28;20499;-69
2024/01/24 04:15:05;;;;;;;6.63;2.25;;;12.90;99.90;;;;;;5009135;28;20045;-69
2024/01/24 04:17:35;;;;;;;8.65;2.40;;;12.80;99.90;;;;;;5009773;28;20044;-68
2024/01/24 04:20:03;;;;;;;4.60;2.50;;;12.80;99.90;;;;;;5010917;28;20038;-68
2024/01/24 04:22:29;;;;;;;2.65;2.45;;;12.80;99.90;;;;;;5016702;28;20229;-68
2024/01/24 04:24:56;;;;;;;4.28;2.67;;;12.80;99.90;;;;;;5021536;28;20036;-68
2024/01/24 04:27:23;;;;;;;2.60;2.38;;;12.80;99.90;;;;;;5022731;28;20026;-68
2024/01/24 04:29:48;;;;;;;4.05;2.20;;;12.80;99.90;;;;;;5012202;28;20030;-68
2024/01/24 04:32:14;;;;;;;2.75;2.03;;;12.90;99.90;;;;;;5018267;28;20056;-68
2024/01/24 04:34:39;;;;;;;4.40;2.00;;;12.90;99.90;;;;;;5008205;28;20030;-68
2024/01/24 04:37:05;;;;;;;3.17;1.50;;;12.90;99.90;;;;;;5016150;28;20129;-68
2024/01/24 04:39:35;;;;;;;2.72;1.70;;;12.90;99.90;;;;;;5018428;28;20038;-68
2024/01/24 04:42:04;;;;;;;2.20;1.33;;;12.90;99.90;;;;;;5014860;28;20034;-68
2024/01/24 04:44:30;;;;;;;2.95;1.35;;;13.00;99.90;;;;;;5012741;28;20033;-68
2024/01/24 04:46:56;;;;;;;1.75;1.10;;;12.90;99.90;;;;;;5008269;28;20451;-68
2024/01/24 04:49:21;;;;;;;1.88;1.27;;;13.00;99.90;;;;;;5013049;28;20034;-68
2024/01/24 04:51:49;;;;;;;2.75;1.30;;;13.00;99.90;;;;;;5006840;28;20035;-68
2024/01/24 04:54:15;;;;;;;;;;;13.00;99.90;;;;;;5022478;28;20113;-68
2024/01/24 04:56:47;;;;;;;6.43;1.85;;;12.90;99.90;;;;;;5008343;28;20337;-68
2024/01/24 04:59:16;;;;;;;3.33;1.67;;;12.80;99.90;;;;;;5018736;28;20100;-68
2024/01/24 05:01:44;;;;;;;3.22;1.80;;;12.80;99.90;;;;;;5010768;28;20038;-69
2024/01/24 05:04:10;;;;;;;7.45;1.95;;;12.70;99.90;;;;;;5015669;28;20552;-69
2024/01/24 05:06:38;;;;;;;8.20;2.42;;;12.40;99.90;;;;;;5016364;28;20042;-69
2024/01/24 05:09:04;;;;;;;16.73;2.08;;;12.10;99.90;;;;;;5014715;28;20664;-68
2024/01/24 05:11:30;;;;;;;13.35;2.08;;;11.60;99.90;;;;;;5010226;28;20046;-69
2024/01/24 05:14:00;;;;;;;18.27;2.10;;;11.40;99.90;;;;;;5014909;28;20033;-68
2024/01/24 05:16:29;;;;;;;10.85;1.75;;;11.30;99.90;;;;;;5009807;28;20033;-68
2024/01/24 05:18:55;;;;;;;8.75;1.83;;;11.20;99.90;;;;;;5008023;28;20042;-68
2024/01/24 05:21:29;;;;;;;7.82;1.42;;;11.10;99.90;;;;;;5011608;28;20136;-68
2024/01/24 05:23:59;;;;;;;7.45;1.20;;;11.10;99.90;;;;;;5029783;28;20412;-68
2024/01/24 05:26:24;;;;;;;11.52;0.85;;;11.10;99.90;;;;;;5012165;28;20029;-68
2024/01/24 05:28:52;;;;;;;6.10;0.90;;;11.10;99.90;;;;;;5013363;28;20018;-68
2024/01/24 05:31:20;;;;;;;5.18;0.85;;;11.10;99.90;;;;;;5016225;28;20021;-68
2024/01/24 05:33:46;;;;;;;7.00;0.98;;;11.20;99.90;;;;;;5031936;28;20041;-68
2024/01/24 05:36:11;;;;;;;3.45;0.50;;;11.30;99.90;;;;;;5018220;28;20038;-68
2024/01/24 05:38:41;;;;;;;6.00;0.77;;;11.30;99.90;;;;;;5017494;28;20034;-68
2024/01/24 05:41:10;;;;;;;1.67;0.73;;;11.40;99.90;;;;;;5014975;28;20488;-68
2024/01/24 05:43:36;;;;;;;2.90;0.40;;;11.40;99.90;;;;;;5015657;28;20037;-68
2024/01/24 05:46:03;;;;;;;1.95;0.43;;;11.50;99.90;;;;;;5010926;28;20033;-69
2024/01/24 05:48:31;;;;;;;2.53;0.65;;;11.50;99.90;;;;;;5010909;28;20393;-68
2024/01/24 05:50:57;;;;;;;4.53;0.43;;;11.60;99.90;;;;;;5015355;28;20026;-68
2024/01/24 05:53:23;;;;;;;4.88;0.73;;;11.60;99.90;;;;;;5015193;28;20167;-68
2024/01/24 05:55:48;;;;;;;6.70;0.65;;;11.60;99.90;;;;;;5006535;28;20041;-68
2024/01/24 05:58:16;;;;;;;9.38;1.10;;;11.60;99.90;;;;;;5011395;28;20036;-69
2024/01/24 06:00:41;;;;;;;3.53;1.02;;;11.60;99.90;;;;;;5007232;28;20034;-68
2024/01/24 06:03:07;;;;;;;10.68;1.20;;;11.60;99.90;;;;;;5002981;28;20179;-68
2024/01/24 06:05:35;;;;;;;7.18;1.00;;;11.70;99.90;;;;;;5000276;28;20065;-68
2024/01/24 06:08:02;;;;;;;17.75;2.38;;;11.70;99.90;;;;;;5007708;28;20030;-68
2024/01/24 06:10:32;;;;;;;10.95;1.77;;;11.80;99.90;;;;;;5008171;28;20409;-68
2024/01/24 06:12:58;;;;;;;6.45;1.65;;;11.80;99.90;;;;;;5009865;28;20030;-68
2024/01/24 06:15:24;;;;;;;13.20;1.92;;;11.80;99.90;;;;;;5002777;28;20029;-68
2024/01/24 06:17:52;;;;;;;11.68;1.45;;;11.80;99.90;;;;;;5000808;28;20030;-68
2024/01/24 06:20:17;;;;;;;;;;;11.80;99.90;;;;;;5004721;28;20030;-68
2024/01/24 06:22:45;;;;;;;14.15;1.40;;;11.80;99.90;;;;;;5005372;28;19936;-68
2024/01/24 06:25:14;;;;;;;8.30;1.15;;;11.70;99.90;;;;;;5007696;28;20448;-67
2024/01/24 06:27:45;;;;;;;11.98;1.17;;;11.70;99.90;;;;;;4997937;28;20037;-68
2024/01/24 06:30:11;;;;;;;9.98;1.70;;;11.70;99.90;;;;;;5004242;28;20061;-67
2024/01/24 06:32:39;;;;;;;4.47;1.33;;;11.70;99.90;;;;;;5024339;28;20053;-67
2024/01/24 06:35:04;;;;;;;17.20;1.95;;;11.70;99.90;;;;;;5003439;28;20042;-67
2024/01/24 06:37:32;;;;;;;13.77;1.70;;;11.70;99.90;;;;;;5000650;28;20581;-67
2024/01/24 06:39:58;;;;;;;8.55;1.60;;;11.70;99.90;;;;;;5016186;28;20075;-67
2024/01/24 06:42:26;;;;;;;9.27;1.23;;;11.60;99.90;;;;;;4996950;28;20033;-67
2024/01/24 06:44:56;;;;;;;;;;;11.60;99.90;;;;;;5000348;28;20041;-67
2024/01/24 06:47:26;;;;;;;10.13;1.45;;;11.60;99.90;;;;;;5008529;23;19972;-68
2024/01/24 06:49:54;;;;;;;10.07;1.45;;;11.60;99.90;;;;;;4997117;28;20412;-67
2024/01/24 06:52:20;;;;;;;9.73;1.63;;;11.60;99.90;;;;;;5005143;28;20061;-67
2024/01/24 06:54:48;;;;;;;15.27;2.15;;;11.50;99.90;;;;;;5001622;28;20687;-68
2024/01/24 06:57:18;;;;;;;14.85;2.25;;;11.50;99.90;;;;;;4998952;28;20064;-69
2024/01/24 06:59:44;;;;;;;11.55;2.03;;;11.60;99.90;;;;;;5000667;28;20627;-69
2024/01/24 07:02:09;;;;;;;18.80;2.22;;;11.60;99.90;;;;;;4999696;28;20041;-69
2024/01/24 07:04:35;;;;;;;15.63;2.30;;;11.50;99.90;;;;;;5004162;28;20100;-69
2024/01/24 07:07:01;;;;;;;11.75;1.85;;;11.50;99.90;;;;;;5004115;28;20050;-69
2024/01/24 07:09:29;;;;;;;12.60;2.28;;;11.50;99.90;;;;;;5009570;28;20070;-69
2024/01/24 07:12:02;;;;;;;20.90;2.33;;;11.50;99.90;;;;;;5004729;28;20026;-69
2024/01/24 07:14:30;;;;;;;12.02;1.98;;;11.50;99.90;;;;;;5004948;28;20129;-69
2024/01/24 07:16:55;;;;;;;;;;;11.50;99.90;;;;;;5005545;28;20030;-69
2024/01/24 07:19:21;;;;;;;14.95;1.92;;;11.50;99.90;;;;;;5006510;28;19960;-69
2024/01/24 07:21:47;;;;;;;13.15;2.05;;;11.40;99.90;;;;;;5008632;28;20100;-69
2024/01/24 07:24:15;;;;;;;23.35;3.40;;;11.40;99.90;;;;;;5010242;28;20030;-70
2024/01/24 07:26:40;;;;;;;23.55;3.20;;;11.20;99.90;;;;;;5012430;28;20109;-69
2024/01/24 07:29:06;;;;;;;16.10;3.22;;;11.10;99.90;;;;;;5007832;28;20570;-69
2024/01/24 07:31:32;;;;;;;12.38;2.30;;;11.10;99.90;;;;;;5008199;28;20026;-69
2024/01/24 07:33:57;;;;;;;14.82;3.13;;;11.10;99.90;;;;;;5008638;28;20056;-69
2024/01/24 07:36:25;;;;;;;32.92;3.58;;;11.00;99.90;;;;;;5004182;28;20026;-69
2024/01/24 07:38:53;;;;;;;21.90;4.35;;;11.00;99.90;;;;;;5010691;28;20038;-69
2024/01/24 07:41:19;;;;;;;;;;;11.00;99.90;;;;;;4999672;28;20041;-69
2024/01/24 07:43:46;;;;;;;19.08;3.00;;;11.00;99.90;;;;;;5004779;28;19927;-69
2024/01/24 07:46:12;;;;;;;28.20;3.72;;;11.00;99.90;;;;;;5004494;28;21286;-69
2024/01/24 07:48:38;;;;;;;24.92;4.15;;;11.00;99.90;;;;;;5003857;28;20046;-69
2024/01/24 07:51:06;;;;;;;20.00;3.65;;;11.10;99.90;;;;;;5005158;28;20038;-69
2024/01/24 07:53:32;;;;;;;27.23;3.33;;;11.00;99.90;;;;;;4998236;28;20528;-69
2024/01/24 07:55:59;;;;;;;17.45;2.80;;;11.00;99.90;;;;;;4996529;28;20069;-70
2024/01/24 07:58:28;;;;;;;30.40;4.45;;;11.00;99.90;;;;;;5007079;28;20026;-70
2024/01/24 08:00:55;;;;;;;31.27;4.20;;;10.90;99.90;;;;;;5005117;28;20113;-70
2024/01/24 08:03:21;;;;;;;26.48;3.45;;;10.90;99.90;;;;;;4998547;28;20038;-69
2024/01/24 08:05:47;;;;;;;28.13;4.65;;;10.90;99.90;;;;;;5001554;28;20748;-70
2024/01/24 08:08:15;;;;;;;26.38;4.45;;;10.90;99.90;;;;;;4998733;28;20068;-70
2024/01/24 08:10:40;;;;;;;34.60;5.10;;;11.00;99.90;;;;;;5015523;28;20026;-69
2024/01/24 08:13:08;;;;;;;30.20;4.68;;;11.00;99.90;;;;;;5001256;28;20022;-70
2024/01/24 08:15:33;;;;;;;32.55;4.38;;;10.90;99.90;;;;;;5010282;28;20029;-69
2024/01/24 08:18:04;;;;;;;29.92;4.38;;;10.90;99.90;;;;;;5011120;28;20037;-70
2024/01/24 08:20:29;;;;;;;28.08;4.38;;;11.00;99.90;;;;;;4999061;28;20089;-70
2024/01/24 08:22:55;;;;;;;23.00;3.67;;;11.00;99.90;;;;;;5001507;28;20547;-69
2024/01/24 08:25:25;;;;;;;25.27;3.67;;;11.00;99.90;;;;;;4999634;28;20057;-70
2024/01/24 08:27:53;;;;;;;34.85;4.40;;;11.00;99.90;;;;;;5003528;28;20097;-70
2024/01/24 08:30:22;;;;;;;26.95;4.70;;;11.00;99.90;;;;;;4995074;28;20048;-70
2024/01/24 08:32:47;;;;;;;22.73;4.20;;;11.10;99.90;;;;;;5004534;28;20508;-70
2024/01/24 08:35:18;;;;;;;32.00;4.35;;;11.10;99.90;;;;;;4998465;28;20078;-70
2024/01/24 08:37:46;;;;;;;22.35;3.70;;;11.20;99.90;;;;;;4991437;28;20034;-70
2024/01/24 08:40:12;;;;;;;29.52;3.60;;;11.20;99.90;;;;;;5000328;28;20857;-70
2024/01/24 08:42:38;;;;;;;27.23;3.78;;;11.20;99.90;;;;;;5000648;28;20061;-70
2024/01/24 08:45:04;;;;;;;31.00;4.60;;;11.20;99.90;;;;;;5006449;28;20060;-70
2024/01/24 08:47:29;;;;;;;28.70;3.70;;;11.20;99.90;;;;;;5006624;28;20144;-69
2024/01/24 08:49:57;;;;;;;24.05;3.60;;;11.10;99.90;;;;;;5012108;28;20632;-70
2024/01/24 08:52:23;;;;;;;32.90;4.00;;;11.30;99.90;;;;;;5011258;28;20125;-70
2024/01/24 08:54:51;;;;;;;26.98;4.20;;;11.30;99.90;;;;;;5006347;28;20073;-69
2024/01/24 08:57:17;;;;;;;;;;;11.30;99.90;;;;;;5001220;28;20475;-69
2024/01/24 08:59:43;;;;;;;28.48;4.75;;;11.30;99.90;;;;;;4999463;28;19914;-70
2024/01/24 09:02:11;;;;;;;26.70;4.40;;;11.30;99.90;;;;;;4995521;28;20157;-69
2024/01/24 09:04:36;;;;;;;;;;;11.30;99.90;;;;;;5002980;28;20053;-70
2024/01/24 09:07:03;;;;;;;28.10;5.30;;;11.30;99.90;;;;;;5000561;28;19941;-70
2024/01/24 09:09:32;;;;;;;31.85;4.65;;;11.30;99.90;;;;;;5005968;28;20038;-69
2024/01/24 09:11:58;;;;;;;22.40;4.05;;;11.30;99.90;;;;;;5006163;28;20053;-70
2024/01/24 09:14:25;;;;;;;26.55;3.95;;;11.30;99.90;;;;;;4996468;28;20050;-70
2024/01/24 09:16:52;;;;;;;43.00;6.30;;;11.30;99.90;;;;;;4995383;28;20030;-70
2024/01/24 09:19:21;;;;;;;31.80;4.50;;;11.30;99.90;;;;;;4998052;28;20100;-69
2024/01/24 09:21:47;;;;;;;35.90;4.28;;;11.30;99.90;;;;;;5006218;28;20034;-69
2024/01/24 09:24:12;;;;;;;30.63;4.05;;;11.30;99.90;;;;;;5011970;28;20551;-69
2024/01/24 09:26:40;;;;;;;19.75;3.08;;;11.30;99.90;;;;;;5004580;28;20037;-69
2024/01/24 09:29:11;;;;;;;28.70;3.85;;;11.40;99.90;;;;;;5005542;28;20048;-69
2024/01/24 09:31:45;;;;;;;29.20;4.63;;;11.40;99.90;;;;;;5006460;28;20032;-69
2024/01/24 09:34:16;;;;;;;29.33;4.60;;;11.40;99.90;;;;;;5003708;28;20018;-69
2024/01/24 09:36:42;;;;;;;31.35;4.40;;;11.40;99.90;;;;;;5003230;28;20038;-69
2024/01/24 09:39:11;;;;;;;24.65;3.35;;;11.40;99.90;;;;;;4999351;28;20632;-69
2024/01/24 09:41:43;;;;;;;29.42;4.95;;;11.40;99.90;;;;;;4998977;28;20100;-69
2024/01/24 09:44:12;;;;;;;26.40;3.85;;;11.40;99.90;;;;;;5003724;28;20575;-69
2024/01/24 09:46:41;;;;;;;26.98;4.28;;;11.40;99.90;;;;;;4993551;28;20032;-69
2024/01/24 09:49:07;;;;;;;31.60;4.07;;;11.40;99.90;;;;;;5002197;28;20396;-69
2024/01/24 09:51:36;;;;;;;30.75;4.97;;;11.40;99.90;;;;;;4999913;28;20111;-69
2024/01/24 09:54:07;;;;;;;28.58;4.53;;;11.30;99.90;;;;;;4992138;28;20034;-69
2024/01/24 09:56:36;;;;;;;24.17;4.10;;;11.30;99.90;;;;;;5003700;28;20105;-69
2024/01/24 09:59:06;;;;;;;36.30;4.57;;;11.30;99.90;;;;;;5003255;28;20721;-69
2024/01/24 10:01:35;;;;;;;35.97;4.10;;;11.30;99.90;;;;;;5002489;28;20022;-69
2024/01/24 10:04:01;;;;;;;43.70;4.45;;;11.30;99.90;;;;;;5005605;28;20050;-69
2024/01/24 10:06:30;;;;;;;28.67;4.28;;;11.30;99.90;;;;;;5008522;28;20042;-69
2024/01/24 10:08:59;;;;;;;26.30;4.60;;;11.20;99.90;;;;;;5001946;28;20035;-69
2024/01/24 10:11:26;;;;;;;35.72;4.88;;;11.20;99.90;;;;;;4996416;28;20045;-69
2024/01/24 10:13:58;;;;;;;27.02;4.22;;;11.10;99.90;;;;;;5004275;28;20038;-69
2024/01/24 10:16:27;;;;;;;35.88;5.00;;;11.10;99.90;;;;;;5011445;28;20030;-69
2024/01/24 10:18:56;;;;;;;29.15;4.32;;;11.10;99.90;;;;;;5017271;28;21004;-69
2024/01/24 10:21:25;;;;;;;34.17;4.70;;;11.10;99.90;;;;;;4996962;28;20030;-69
2024/01/24 10:23:55;;;;;;;34.30;5.03;;;11.10;99.90;;;;;;4997348;28;20040;-69
2024/01/24 10:26:24;;;;;;;28.00;4.20;;;11.10;99.90;;;;;;5004851;28;20229;-69
2024/01/24 10:28:52;;;;;;;29.08;4.53;;;11.10;99.90;;;;;;5006347;28;20117;-69
2024/01/24 10:31:20;;;;;;;25.35;4.35;;;11.10;99.90;;;;;;5008262;28;20037;-69
2024/01/24 10:33:54;;;;;;;26.80;4.40;;;11.10;99.90;;;;;;5015047;28;20049;-69
2024/01/24 10:36:20;;;;;;;40.08;5.18;;;11.10;99.90;;;;;;4997054;28;20503;-69
2024/01/24 10:38:53;;;;;;;29.73;4.88;;;11.10;99.90;;;;;;5005027;28;20038;-69
2024/01/24 10:41:22;;;;;;;31.25;5.13;;;11.20;99.90;;;;;;5006540;23;20045;-69
2024/01/24 10:43:52;;;;;;;;;;;11.20;99.90;;;;;;4996106;28;20041;-69
2024/01/24 10:46:25;;;;;;;27.45;4.63;;;11.20;99.90;;;;;;5015045;28;19963;-69
2024/01/24 10:48:55;;;;;;;33.33;4.57;;;11.20;99.90;;;;;;4999762;28;20254;-69
2024/01/24 10:51:24;;;;;;;27.70;4.53;;;11.20;99.90;;;;;;4998787;28;20416;-69
2024/01/24 10:53:52;;;;;;;43.45;5.63;;;11.20;99.90;;;;;;4996363;28;20132;-69
2024/01/24 10:56:19;;;;;;;35.45;5.70;;;11.30;99.90;;;;;;5004936;28;20046;-69
2024/01/24 10:58:47;;;;;;;43.05;5.78;;;11.30;99.90;;;;;;5001675;28;20072;-69
2024/01/24 11:01:15;;;;;;;;;;;11.20;99.90;;;;;;5003101;28;20033;-69
2024/01/24 11:03:46;;;;;;;24.52;3.97;;;11.30;99.90;;;;;;5005906;28;20292;-69
2024/01/24 11:06:16;;;;;;;32.30;5.07;;;11.20;99.90;;;;;;5006173;28;20045;-69
2024/01/24 11:08:48;;;;;;;32.33;4.82;;;11.20;99.90;;;;;;4998865;28;20030;-69
2024/01/24 11:11:20;;;;;;;31.95;4.68;;;11.20;99.90;;;;;;5020661;28;20045;-69
2024/01/24 11:13:48;;;;;;;31.25;5.03;;;11.20;99.90;;;;;;5015680;28;20105;-69
2024/01/24 11:16:25;;;;;;;31.27;5.50;;;11.20;99.90;;;;;;5006160;28;20265;-70
2024/01/24 11:18:51;;;;;;;48.80;5.50;;;11.20;99.90;;;;;;5003726;28;20061;-69
2024/01/24 11:21:21;;;;;;;31.42;4.97;;;11.20;99.90;;;;;;5012239;28;20659;-69
2024/01/24 11:23:48;;;;;;;39.38;4.78;;;11.20;99.90;;;;;;4999633;28;20035;-69
2024/01/24 11:26:17;;;;;;;36.10;5.60;;;11.20;99.90;;;;;;5015154;28;20033;-69
2024/01/24 11:28:46;;;;;;;28.48;3.85;;;11.20;99.90;;;;;;5002724;28;20030;-69
2024/01/24 11:31:12;;;;;;;25.52;5.10;;;11.20;99.90;;;;;;5000389;28;20029;-69
2024/01/24 11:34:17;;;;;;;31.02;4.28;;;11.20;99.90;;;;;;5003412;28;20133;-69
2024/01/24 11:36:49;;;;;;;34.70;4.43;;;11.20;99.90;;;;;;5003747;28;20404;-69
2024/01/24 11:39:39;;;;;;;35.50;5.28;;;11.30;99.90;;;;;;5001653;28;20053;-69
2024/01/24 11:42:26;;;;;;;38.40;4.43;;;11.20;99.90;;;;;;5006618;28;20098;-69
2024/01/24 11:44:55;;;;;;;46.63;5.90;;;11.20;99.90;;;;;;5005096;28;20345;-69
2024/01/24 11:47:22;;;;;;;33.45;4.82;;;11.20;99.90;;;;;;4997558;28;20042;-69
2024/01/24 11:49:51;;;;;;;37.43;4.80;;;11.20;99.90;;;;;;5003154;28;20713;-69
2024/01/24 11:52:22;;;;;;;39.78;5.10;;;11.30;99.90;;;;;;5005254;28;20049;-69
2024/01/24 11:54:58;;;;;;;30.40;4.15;;;11.20;99.90;;;;;;5003448;28;20429;-69
2024/01/24 11:57:24;;;;;;;38.25;4.60;;;11.20;99.90;;;;;;5005265;28;20050;-69
2024/01/24 11:59:50;;;;;;;41.65;5.93;;;11.20;99.90;;;;;;5002933;28;20026;-69
2024/01/24 12:02:15;;;;;;;34.58;5.38;;;11.20;99.90;;;;;;5003395;28;20527;-69
2024/01/24 12:04:41;;;;;;;35.38;5.45;;;11.20;99.90;;;;;;5006220;28;20026;-69
2024/01/24 12:07:09;;;;;;;38.03;4.90;;;11.20;99.90;;;;;;5009011;28;20029;-69
2024/01/24 12:09:35;;;;;;;41.53;6.30;;;11.20;99.90;;;;;;5008844;28;20030;-69
2024/01/24 12:12:01;;;;;;;31.98;5.15;;;11.20;99.90;;;;;;5009590;28;20132;-69
2024/01/24 12:14:26;;;;;;;27.40;4.57;;;11.20;99.90;;;;;;5010282;28;20319;-69
2024/01/24 12:16:54;;;;;;;27.92;5.38;;;11.30;99.90;;;;;;5008135;28;20443;-69
2024/01/24 12:19:21;;;;;;;17.67;3.70;;;11.20;99.90;;;;;;5008315;28;20041;-69
2024/01/24 12:21:48;;;;;;;37.05;4.88;;;11.20;99.90;;;;;;5021752;28;20041;-69
2024/01/24 12:24:17;;;;;;;29.30;3.92;;;11.20;99.90;;;;;;5001034;28;20493;-69
2024/01/24 12:26:43;;;;;;;42.65;5.25;;;11.30;99.90;;;;;;5016274;28;20026;-70
2024/01/24 12:29:08;;;;;;;31.25;4.05;;;11.20;99.90;;;;;;5019893;28;20030;-69
2024/01/24 12:31:42;;;;;;;36.35;4.90;;;11.20;99.90;;;;;;5005732;28;21176;-69
2024/01/24 12:34:10;;;;;;;41.20;5.55;;;11.30;99.90;;;;;;5001959;28;20428;-69
2024/01/24 12:36:38;;;;;;;32.15;4.65;;;11.20;99.90;;;;;;5006392;28;20035;-69
2024/01/24 12:39:04;;;;;;;39.30;5.88;;;11.20;99.90;;;;;;5004334;28;20834;-69
2024/01/24 12:41:33;;;;;;;32.55;4.95;;;11.20;99.90;;;;;;5008783;28;20527;-69
2024/01/24 12:43:59;;;;;;;31.15;5.07;;;11.20;99.90;;;;;;5006569;28;20046;-70
2024/01/24 12:46:25;;;;;;;31.85;4.22;;;11.20;99.90;;;;;;5007072;23;20042;-69
2024/01/24 12:48:55;;;;;;;33.28;4.70;;;11.20;99.90;;;;;;5002523;28;20104;-69